Airfield :
LOGIN :

Register | Disclaimer

   EN    FR    IT 

 










Legend :    VFR   Marginal VFR   IFR   Intensive IFR   Very Intensive IFR
Visi :
Ceiling :
>= 8 km
>= 3000ft
5 to 8 km
1000 to 3000 ft
1500m to 5 km
500 to 1000 ft
800 to 1500m
200 to 500 ft
< 800m
< 200 ft
Symbols :   Thunderstorms  Fog  Heavy snow  Heavy precipitations  Wind > 20 kt
SIGMETs :     Misc.  Thunderstorms  Icing  Turbulence  Mountain Waves  Volcanic Ashes







- Airport Elevation : 194 ft


EBCV - Chièvres

CURRENT METAR :
  • 241655Z AUTO 35011KT 9999 NCD 20/08 Q1016 BLU

EXPIRED METARs :
  • 241625Z AUTO 34012KT 9999 FEW056/// 20/09 Q1016 BLU
  • 241555Z AUTO 34009KT 9999 BKN054/// 21/11 Q1016 BLU
  • 241525Z AUTO 35009KT 9999 BKN053/// 21/12 Q1016 BLU
  • 241455Z AUTO 34008KT 9999 FEW050/// 20/13 Q1016 BLU
  • 241425Z AUTO 33005KT 9999 NCD 21/10 Q1016 BLU

TAF TAF EBCV
Valid from the 24 at 13:00 until the 24 at 22:00 UTC


241209Z 2413/2422 27005KT 9999 SCT270
BECMG 2413/2415 32008KT FEW045 SCT100 BY EBWM
No reported NOTAMs for that airfield.



MET'MAP, your aeronautical weather chart ! - Copyright ORBIFLY December 2007 - Disclaimer

ORBIFLY MET'MAP TEAM :

Programming & Development : Alexandra Zaïnal
Concept & Development : Baudouin d'Aumeries
Co-Development & Prog : Marc-Olivier Méhu
Technical & hardware support : Manuel Goepfert

Contact : metmap@orbifly.com




SOURCES & CREDITS :

   NOAA